createdAt,value
2019-01-02T00:02:11.113Z,101910.08
2019-01-02T00:07:14.546Z,101915.13
2019-01-02T00:12:17.992Z,101913.23
2019-01-02T00:17:21.429Z,101914.63
2019-01-02T00:22:24.877Z,101917.37
2019-01-02T00:27:28.399Z,101913.83
2019-01-02T00:32:31.845Z,101929.81
2019-01-02T00:37:35.279Z,101947.89
2019-01-02T00:42:38.723Z,101949.19
2019-01-02T00:47:42.172Z,101948.81
2019-01-02T00:52:45.590Z,101958.31
2019-01-02T00:57:49.015Z,101961.35
2019-01-02T01:02:52.457Z,101940.19
2019-01-02T01:07:55.885Z,101955.86
2019-01-02T01:12:59.314Z,101966.03
2019-01-02T01:18:02.755Z,101965.88
2019-01-02T01:23:06.442Z,101964.30
2019-01-02T01:28:10.246Z,101977.89
2019-01-02T01:33:13.660Z,101991.33
2019-01-02T01:38:17.096Z,101991.02
2019-01-02T01:43:20.905Z,102000.22
2019-01-02T01:48:24.332Z,101992.78
2019-01-02T01:53:27.769Z,102000.95
2019-01-02T01:58:31.197Z,102009.42
2019-01-02T02:03:35.095Z,102014.31
2019-01-02T02:08:38.533Z,102005.36
2019-01-02T02:13:41.985Z,102017.73
2019-01-02T02:18:45.776Z,102032.75
2019-01-02T02:23:49.199Z,102033.95
2019-01-02T02:28:52.628Z,102035.46
2019-01-02T02:33:56.079Z,102026.98
2019-01-02T02:38:59.975Z,102018.41
2019-01-02T02:44:03.783Z,102030.80
2019-01-02T02:49:07.670Z,102033.54
2019-01-02T02:54:11.486Z,102034.46
2019-01-02T02:59:15.317Z,102032.30
2019-01-02T03:04:19.118Z,102044.96
2019-01-02T03:09:22.925Z,102051.06
2019-01-02T03:14:26.409Z,102047.88
2019-01-02T03:19:30.221Z,102050.78
2019-01-02T03:24:34.020Z,102043.37
2019-01-02T03:29:37.815Z,102053.27
2019-01-02T03:34:41.557Z,102055.60
2019-01-02T03:39:44.975Z,102061.91
2019-01-02T03:44:48.386Z,102067.66
2019-01-02T03:49:51.825Z,102074.80
2019-01-02T03:54:55.266Z,102092.39
2019-01-02T03:59:58.703Z,102084.61
2019-01-02T04:05:02.134Z,102087.19
2019-01-02T04:10:08.603Z,102098.16
2019-01-02T04:15:12.038Z,102104.48
2019-01-02T04:20:15.470Z,102114.42
2019-01-02T04:25:18.907Z,102117.11
2019-01-02T04:30:22.369Z,102121.72
2019-01-02T04:35:25.792Z,102120.67
2019-01-02T04:40:29.225Z,102112.79
2019-01-02T04:45:32.663Z,102108.34
2019-01-02T04:50:36.092Z,102111.52
2019-01-02T04:55:39.536Z,102115.81
2019-01-02T05:00:42.967Z,102111.35
2019-01-02T05:05:46.421Z,102095.55
2019-01-02T05:10:49.872Z,102104.13
2019-01-02T05:15:53.274Z,102108.69
2019-01-02T05:20:56.716Z,102106.23
2019-01-02T05:26:00.156Z,102104.95
2019-01-02T05:31:03.600Z,102115.59
2019-01-02T05:36:07.033Z,102121.99
2019-01-02T05:41:10.471Z,102130.66
2019-01-02T05:46:13.900Z,102127.63
2019-01-02T05:51:17.321Z,102138.69
2019-01-02T05:56:20.932Z,102149.16
2019-01-02T06:01:24.392Z,102148.56
2019-01-02T06:06:27.793Z,102154.27
2019-01-02T06:11:31.230Z,102156.58
2019-01-02T06:16:34.686Z,102162.40
2019-01-02T06:21:38.111Z,102174.48
2019-01-02T06:26:41.539Z,102181.84
2019-01-02T06:31:44.966Z,102183.70
2019-01-02T06:36:48.388Z,102185.83
2019-01-02T06:41:51.870Z,102186.70
2019-01-02T06:46:55.326Z,102193.20
2019-01-02T06:51:58.770Z,102195.92
2019-01-02T06:57:02.184Z,102202.89
2019-01-02T07:02:05.617Z,102192.05
2019-01-02T07:07:09.080Z,102204.78
2019-01-02T07:12:12.513Z,102231.08
2019-01-02T07:17:15.934Z,102224.44
2019-01-02T07:22:19.357Z,102237.06
2019-01-02T07:27:22.785Z,102245.75
2019-01-02T07:32:26.233Z,102253.68
2019-01-02T07:37:49.539Z,102264.06
2019-01-02T07:43:05.229Z,102279.70
2019-01-02T07:48:31.026Z,102287.45
2019-01-02T07:53:58.824Z,102314.22
2019-01-02T07:59:17.464Z,102317.86
2019-01-02T08:04:36.172Z,102332.06
2019-01-02T08:09:45.237Z,102334.35
2019-01-02T08:14:51.705Z,102342.13
2019-01-02T08:20:22.143Z,102343.31
2019-01-02T08:25:28.617Z,102344.58
2019-01-02T08:30:53.280Z,102355.63
2019-01-02T08:36:02.522Z,102374.38
2019-01-02T08:41:11.769Z,102377.42
2019-01-02T08:46:39.146Z,102388.83
2019-01-02T08:51:48.362Z,102404.27
2019-01-02T08:57:09.830Z,102412.02
2019-01-02T09:02:31.305Z,102409.60
2019-01-02T09:07:43.974Z,102417.70
2019-01-02T09:13:07.116Z,102429.33
2019-01-02T09:18:41.022Z,102442.55
2019-01-02T09:24:02.711Z,102450.50
2019-01-02T09:29:23.788Z,102456.18
2019-01-02T09:34:54.084Z,102461.03
2019-01-02T09:40:03.508Z,102471.87
2019-01-02T09:45:43.703Z,102485.97
2019-01-02T09:51:21.950Z,102488.34
2019-01-02T09:56:33.955Z,102485.67
2019-01-02T10:01:49.398Z,102494.14
2019-01-02T10:06:55.860Z,102490.84
2019-01-02T10:12:29.149Z,102504.39
2019-01-02T10:17:38.566Z,102503.16
2019-01-02T10:23:04.679Z,102502.56
2019-01-02T10:28:20.053Z,102514.03
2019-01-02T10:33:41.403Z,102515.69
2019-01-02T10:38:50.382Z,102513.08
2019-01-02T10:44:14.853Z,102504.89
2019-01-02T10:49:21.364Z,102521.97
2019-01-02T10:54:45.506Z,102512.68
2019-01-02T11:00:16.293Z,102517.36
2019-01-02T11:05:31.682Z,102525.36
2019-01-02T11:10:46.840Z,102529.64
2019-01-02T11:15:53.328Z,102536.02
2019-01-02T11:21:17.902Z,102531.21
2019-01-02T11:26:52.969Z,102542.77
2019-01-02T11:32:32.458Z,102542.17
2019-01-02T11:37:42.247Z,102532.38
2019-01-02T11:42:57.580Z,102535.75
2019-01-02T11:48:00.989Z,102539.55
2019-01-02T11:53:04.431Z,102542.17
2019-01-02T11:58:07.855Z,102545.59
2019-01-02T12:03:11.317Z,102558.25
2019-01-02T18:52:12.455Z,102862.05
2019-01-02T18:57:21.687Z,102864.94
2019-01-02T19:02:32.667Z,102865.53
2019-01-02T19:07:58.320Z,102866.34
2019-01-02T19:13:03.540Z,102874.83
2019-01-02T19:18:10.287Z,102873.05
2019-01-02T19:23:15.673Z,102877.86
2019-01-02T19:28:19.150Z,102878.65
2019-01-02T19:33:22.613Z,102883.95
2019-01-02T19:38:26.051Z,102881.89
2019-01-02T19:43:29.512Z,102877.83
2019-01-02T19:48:32.960Z,102876.78
2019-01-02T19:53:36.562Z,102879.93
2019-01-02T19:58:40.043Z,102875.20
2019-01-02T20:03:45.134Z,102873.63
2019-01-02T20:08:48.595Z,102874.61
2019-01-02T20:13:52.035Z,102871.34
2019-01-02T20:18:55.540Z,102874.70
2019-01-02T20:24:00.780Z,102878.68
2019-01-02T20:29:04.237Z,102874.03
2019-01-02T20:34:07.637Z,102871.34
2019-01-02T20:39:11.084Z,102871.47
2019-01-02T20:44:14.468Z,102867.62
2019-01-02T20:49:17.906Z,102858.24
2019-01-02T20:54:21.328Z,102857.45
2019-01-02T20:59:24.755Z,102850.63
2019-01-02T21:04:28.162Z,102848.15
2019-01-02T21:09:31.591Z,102856.94
2019-01-02T21:14:35.005Z,102856.84
2019-01-02T21:19:38.435Z,102854.04
2019-01-02T21:24:41.869Z,102848.22
2019-01-02T21:29:45.339Z,102861.62
2019-01-02T21:34:48.763Z,102852.14
2019-01-02T21:39:52.190Z,102855.40
2019-01-02T21:44:55.614Z,102857.64
2019-01-02T21:49:59.154Z,102859.78
2019-01-02T21:55:02.640Z,102852.05
2019-01-02T22:00:09.614Z,102849.69
2019-01-02T22:05:13.492Z,102836.24
2019-01-02T22:10:16.948Z,102832.47
2019-01-02T22:15:20.351Z,102834.92
2019-01-02T22:20:23.772Z,102832.01
2019-01-02T22:25:27.257Z,102831.41
2019-01-02T22:30:32.243Z,102826.75
2019-01-02T22:35:35.671Z,102840.69
2019-01-02T22:40:39.119Z,102840.57
2019-01-02T22:45:42.541Z,102838.45
2019-01-02T22:50:46.019Z,102835.91
2019-01-02T22:55:49.454Z,102831.86
2019-01-02T23:01:04.393Z,102837.16
2019-01-02T23:06:25.752Z,102837.36
2019-01-02T23:11:39.830Z,102837.80
2019-01-02T23:17:00.369Z,102837.88
2019-01-02T23:22:05.457Z,102832.78
2019-01-02T23:27:25.870Z,102838.12
2019-01-02T23:32:33.960Z,102833.02
2019-01-02T23:37:55.178Z,102830.37
2019-01-02T23:43:18.139Z,102825.95
2019-01-02T23:48:28.964Z,102821.12
2019-01-02T23:53:34.019Z,102829.48
2019-01-02T23:58:57.175Z,102820.77
